sensor_id;sensor_type;location;lat;lon;timestamp;temperature;humidity
44037;DHT22;62488;-37.670;-63.532;2023-03-01T00:01:31;32.70;50.40
44037;DHT22;62488;-37.670;-63.532;2023-03-01T00:03:58;32.70;50.70
44037;DHT22;62488;-37.670;-63.532;2023-03-01T00:06:27;32.70;50.80
44037;DHT22;62488;-37.670;-63.532;2023-03-01T00:08:54;32.50;50.90
44037;DHT22;62488;-37.670;-63.532;2023-03-01T00:11:29;32.50;51.20
44037;DHT22;62488;-37.670;-63.532;2023-03-01T00:13:59;32.40;51.30
44037;DHT22;62488;-37.670;-63.532;2023-03-01T00:16:32;32.30;51.60
44037;DHT22;62488;-37.670;-63.532;2023-03-01T00:19:00;32.20;51.70
44037;DHT22;62488;-37.670;-63.532;2023-03-01T00:21:27;32.10;51.70
44037;DHT22;62488;-37.670;-63.532;2023-03-01T00:23:55;32.00;51.80
44037;DHT22;62488;-37.670;-63.532;2023-03-01T00:26:23;32.00;51.60
44037;DHT22;62488;-37.670;-63.532;2023-03-01T00:28:51;32.00;52.00
44037;DHT22;62488;-37.670;-63.532;2023-03-01T00:31:21;31.90;52.10
44037;DHT22;62488;-37.670;-63.532;2023-03-01T00:33:48;31.80;52.40
44037;DHT22;62488;-37.670;-63.532;2023-03-01T00:36:16;31.70;52.80
44037;DHT22;62488;-37.670;-63.532;2023-03-01T00:38:44;31.60;53.10
44037;DHT22;62488;-37.670;-63.532;2023-03-01T00:41:15;31.40;53.40
44037;DHT22;62488;-37.670;-63.532;2023-03-01T00:43:43;31.40;53.40
44037;DHT22;62488;-37.670;-63.532;2023-03-01T00:46:13;31.30;53.40
44037;DHT22;62488;-37.670;-63.532;2023-03-01T00:48:41;31.20;53.60
44037;DHT22;62488;-37.670;-63.532;2023-03-01T00:51:09;31.30;53.70
44037;DHT22;62488;-37.670;-63.532;2023-03-01T00:53:37;31.30;53.50
44037;DHT22;62488;-37.670;-63.532;2023-03-01T00:56:05;31.30;53.80
44037;DHT22;62488;-37.670;-63.532;2023-03-01T00:58:33;31.20;54.10
44037;DHT22;62488;-37.670;-63.532;2023-03-01T01:01:01;31.10;54.50
44037;DHT22;62488;-37.670;-63.532;2023-03-01T01:03:33;30.90;54.90
44037;DHT22;62488;-37.670;-63.532;2023-03-01T01:06:00;30.80;55.20
44037;DHT22;62488;-37.670;-63.532;2023-03-01T01:08:35;30.70;55.70
44037;DHT22;62488;-37.670;-63.532;2023-03-01T01:11:02;30.60;56.00
44037;DHT22;62488;-37.670;-63.532;2023-03-01T01:13:30;30.40;56.50
44037;DHT22;62488;-37.670;-63.532;2023-03-01T01:16:01;30.30;56.90
44037;DHT22;62488;-37.670;-63.532;2023-03-01T01:18:28;30.20;57.30
44037;DHT22;62488;-37.670;-63.532;2023-03-01T01:20:56;30.10;57.50
44037;DHT22;62488;-37.670;-63.532;2023-03-01T01:23:23;30.00;57.60
44037;DHT22;62488;-37.670;-63.532;2023-03-01T01:25:50;29.90;57.50
44037;DHT22;62488;-37.670;-63.532;2023-03-01T01:41:07;29.80;57.20
44037;DHT22;62488;-37.670;-63.532;2023-03-01T01:43:43;29.70;57.80
44037;DHT22;62488;-37.670;-63.532;2023-03-01T01:46:32;29.60;58.10
44037;DHT22;62488;-37.670;-63.532;2023-03-01T01:49:24;29.50;58.10
44037;DHT22;62488;-37.670;-63.532;2023-03-01T01:51:53;29.40;58.50
44037;DHT22;62488;-37.670;-63.532;2023-03-01T01:54:26;29.40;58.10
44037;DHT22;62488;-37.670;-63.532;2023-03-01T01:57:02;29.30;58.20
44037;DHT22;62488;-37.670;-63.532;2023-03-01T01:59:31;29.30;58.20
44037;DHT22;62488;-37.670;-63.532;2023-03-01T02:02:00;29.20;58.10
44037;DHT22;62488;-37.670;-63.532;2023-03-01T02:04:31;29.20;58.00
44037;DHT22;62488;-37.670;-63.532;2023-03-01T02:07:03;29.20;57.80
44037;DHT22;62488;-37.670;-63.532;2023-03-01T02:09:34;29.10;57.50
44037;DHT22;62488;-37.670;-63.532;2023-03-01T02:12:02;29.20;57.70
44037;DHT22;62488;-37.670;-63.532;2023-03-01T02:14:29;29.10;57.60
44037;DHT22;62488;-37.670;-63.532;2023-03-01T02:16:56;29.10;57.40
44037;DHT22;62488;-37.670;-63.532;2023-03-01T02:30:19;29.30;56.60
44037;DHT22;62488;-37.670;-63.532;2023-03-01T02:32:48;29.30;56.50
44037;DHT22;62488;-37.670;-63.532;2023-03-01T02:35:16;29.30;56.50
44037;DHT22;62488;-37.670;-63.532;2023-03-01T02:37:44;29.20;56.40
44037;DHT22;62488;-37.670;-63.532;2023-03-01T02:40:16;29.10;56.50
44037;DHT22;62488;-37.670;-63.532;2023-03-01T02:42:51;29.10;56.80
44037;DHT22;62488;-37.670;-63.532;2023-03-01T02:45:20;29.20;56.70
44037;DHT22;62488;-37.670;-63.532;2023-03-01T02:47:47;29.20;56.80
44037;DHT22;62488;-37.670;-63.532;2023-03-01T02:55:58;28.90;57.60
44037;DHT22;62488;-37.670;-63.532;2023-03-01T02:58:25;28.70;58.00
44037;DHT22;62488;-37.670;-63.532;2023-03-01T03:00:52;28.60;58.40
44037;DHT22;62488;-37.670;-63.532;2023-03-01T03:03:21;28.50;58.60
44037;DHT22;62488;-37.670;-63.532;2023-03-01T03:05:48;28.40;58.90
44037;DHT22;62488;-37.670;-63.532;2023-03-01T03:08:16;28.20;59.20
44037;DHT22;62488;-37.670;-63.532;2023-03-01T03:10:49;28.20;59.40
44037;DHT22;62488;-37.670;-63.532;2023-03-01T03:13:16;28.10;59.80
44037;DHT22;62488;-37.670;-63.532;2023-03-01T03:15:45;28.00;60.00
44037;DHT22;62488;-37.670;-63.532;2023-03-01T03:18:15;27.90;60.50
44037;DHT22;62488;-37.670;-63.532;2023-03-01T03:20:43;27.80;60.90
44037;DHT22;62488;-37.670;-63.532;2023-03-01T03:23:11;27.70;61.30
44037;DHT22;62488;-37.670;-63.532;2023-03-01T03:25:38;27.70;61.40
44037;DHT22;62488;-37.670;-63.532;2023-03-01T03:28:06;27.60;61.40
44037;DHT22;62488;-37.670;-63.532;2023-03-01T03:30:38;27.60;61.90
44037;DHT22;62488;-37.670;-63.532;2023-03-01T03:33:06;27.40;62.40
44037;DHT22;62488;-37.670;-63.532;2023-03-01T03:35:39;27.20;62.90
44037;DHT22;62488;-37.670;-63.532;2023-03-01T03:38:08;26.90;63.20
44037;DHT22;62488;-37.670;-63.532;2023-03-01T03:40:47;26.70;63.80
44037;DHT22;62488;-37.670;-63.532;2023-03-01T03:43:17;26.50;64.20
44037;DHT22;62488;-37.670;-63.532;2023-03-01T03:45:46;26.40;64.50
44037;DHT22;62488;-37.670;-63.532;2023-03-01T03:48:14;26.30;65.00
44037;DHT22;62488;-37.670;-63.532;2023-03-01T03:50:41;26.30;65.30
44037;DHT22;62488;-37.670;-63.532;2023-03-01T03:53:12;26.20;65.60
44037;DHT22;62488;-37.670;-63.532;2023-03-01T03:55:39;26.10;65.90
44037;DHT22;62488;-37.670;-63.532;2023-03-01T03:58:09;26.00;66.30
44037;DHT22;62488;-37.670;-63.532;2023-03-01T04:00:41;26.00;66.60
44037;DHT22;62488;-37.670;-63.532;2023-03-01T04:03:10;26.00;66.70
44037;DHT22;62488;-37.670;-63.532;2023-03-01T04:05:38;25.90;67.00
44037;DHT22;62488;-37.670;-63.532;2023-03-01T04:08:06;25.80;67.40
44037;DHT22;62488;-37.670;-63.532;2023-03-01T04:10:39;25.80;67.60
44037;DHT22;62488;-37.670;-63.532;2023-03-01T04:13:07;25.90;67.50
44037;DHT22;62488;-37.670;-63.532;2023-03-01T04:15:34;26.00;67.20
44037;DHT22;62488;-37.670;-63.532;2023-03-01T04:18:02;26.00;67.20
44037;DHT22;62488;-37.670;-63.532;2023-03-01T04:20:32;25.90;67.30
44037;DHT22;62488;-37.670;-63.532;2023-03-01T04:23:13;25.90;67.50
44037;DHT22;62488;-37.670;-63.532;2023-03-01T04:25:53;26.00;67.20
44037;DHT22;62488;-37.670;-63.532;2023-03-01T04:28:29;26.10;67.20
44037;DHT22;62488;-37.670;-63.532;2023-03-01T04:30:58;26.00;67.50
44037;DHT22;62488;-37.670;-63.532;2023-03-01T04:33:31;25.90;67.80
44037;DHT22;62488;-37.670;-63.532;2023-03-01T04:35:58;25.80;68.10
44037;DHT22;62488;-37.670;-63.532;2023-03-01T04:38:24;25.60;68.60
44037;DHT22;62488;-37.670;-63.532;2023-03-01T04:40:51;25.40;69.10
44037;DHT22;62488;-37.670;-63.532;2023-03-01T04:43:18;25.20;69.70
44037;DHT22;62488;-37.670;-63.532;2023-03-01T04:45:45;25.20;70.00
44037;DHT22;62488;-37.670;-63.532;2023-03-01T04:48:12;25.20;70.00
44037;DHT22;62488;-37.670;-63.532;2023-03-01T04:50:39;25.20;70.20
44037;DHT22;62488;-37.670;-63.532;2023-03-01T04:53:06;25.10;70.40
44037;DHT22;62488;-37.670;-63.532;2023-03-01T04:55:34;25.10;70.40
44037;DHT22;62488;-37.670;-63.532;2023-03-01T04:58:01;25.20;70.00
44037;DHT22;62488;-37.670;-63.532;2023-03-01T05:00:28;25.40;69.80
44037;DHT22;62488;-37.670;-63.532;2023-03-01T05:03:00;25.40;69.70
44037;DHT22;62488;-37.670;-63.532;2023-03-01T05:05:34;25.30;70.00
44037;DHT22;62488;-37.670;-63.532;2023-03-01T05:08:07;25.30;69.90
44037;DHT22;62488;-37.670;-63.532;2023-03-01T05:10:35;25.40;69.80
44037;DHT22;62488;-37.670;-63.532;2023-03-01T05:13:05;25.40;69.80
44037;DHT22;62488;-37.670;-63.532;2023-03-01T05:15:33;25.40;69.60
44037;DHT22;62488;-37.670;-63.532;2023-03-01T05:18:00;25.60;69.10
44037;DHT22;62488;-37.670;-63.532;2023-03-01T05:20:28;25.60;68.90
44037;DHT22;62488;-37.670;-63.532;2023-03-01T05:22:58;25.60;69.10
44037;DHT22;62488;-37.670;-63.532;2023-03-01T05:25:26;25.60;69.40
44037;DHT22;62488;-37.670;-63.532;2023-03-01T05:27:53;25.40;69.60
44037;DHT22;62488;-37.670;-63.532;2023-03-01T05:30:20;25.40;69.60
44037;DHT22;62488;-37.670;-63.532;2023-03-01T05:32:49;25.40;69.60
44037;DHT22;62488;-37.670;-63.532;2023-03-01T05:35:22;25.50;69.50
44037;DHT22;62488;-37.670;-63.532;2023-03-01T05:37:50;25.40;69.70
44037;DHT22;62488;-37.670;-63.532;2023-03-01T05:40:22;25.40;69.70
44037;DHT22;62488;-37.670;-63.532;2023-03-01T05:42:55;25.50;69.70
44037;DHT22;62488;-37.670;-63.532;2023-03-01T05:45:25;25.20;70.00
44037;DHT22;62488;-37.670;-63.532;2023-03-01T05:47:53;25.10;70.40
44037;DHT22;62488;-37.670;-63.532;2023-03-01T05:50:24;25.00;70.90
44037;DHT22;62488;-37.670;-63.532;2023-03-01T05:55:28;24.70;72.00
44037;DHT22;62488;-37.670;-63.532;2023-03-01T05:57:57;24.50;72.90
44037;DHT22;62488;-37.670;-63.532;2023-03-01T06:00:24;24.30;72.90
44037;DHT22;62488;-37.670;-63.532;2023-03-01T06:02:53;24.20;73.70
44037;DHT22;62488;-37.670;-63.532;2023-03-01T06:05:20;24.10;74.00
44037;DHT22;62488;-37.670;-63.532;2023-03-01T06:07:47;23.90;74.50
44037;DHT22;62488;-37.670;-63.532;2023-03-01T06:10:14;23.80;75.00
44037;DHT22;62488;-37.670;-63.532;2023-03-01T06:12:42;23.70;75.50
44037;DHT22;62488;-37.670;-63.532;2023-03-01T06:15:11;23.60;76.10
44037;DHT22;62488;-37.670;-63.532;2023-03-01T06:17:40;23.40;76.40
44037;DHT22;62488;-37.670;-63.532;2023-03-01T06:20:11;23.30;77.10
44037;DHT22;62488;-37.670;-63.532;2023-03-01T06:22:39;23.10;77.90
44037;DHT22;62488;-37.670;-63.532;2023-03-01T06:25:07;22.90;78.60
44037;DHT22;62488;-37.670;-63.532;2023-03-01T06:27:34;22.90;79.30
44037;DHT22;62488;-37.670;-63.532;2023-03-01T06:30:02;22.80;80.30
44037;DHT22;62488;-37.670;-63.532;2023-03-01T06:32:29;22.80;80.70
44037;DHT22;62488;-37.670;-63.532;2023-03-01T06:34:57;22.70;81.30
44037;DHT22;62488;-37.670;-63.532;2023-03-01T06:37:25;22.60;82.30
44037;DHT22;62488;-37.670;-63.532;2023-03-01T06:39:52;22.40;83.30
44037;DHT22;62488;-37.670;-63.532;2023-03-01T06:42:20;22.20;84.50
44037;DHT22;62488;-37.670;-63.532;2023-03-01T06:44:47;22.00;85.50
44037;DHT22;62488;-37.670;-63.532;2023-03-01T06:47:14;21.90;86.60
44037;DHT22;62488;-37.670;-63.532;2023-03-01T06:49:41;21.90;87.10
44037;DHT22;62488;-37.670;-63.532;2023-03-01T06:52:08;21.90;87.90
44037;DHT22;62488;-37.670;-63.532;2023-03-01T06:54:35;21.90;88.30
44037;DHT22;62488;-37.670;-63.532;2023-03-01T06:57:02;22.00;88.30
44037;DHT22;62488;-37.670;-63.532;2023-03-01T06:59:29;21.90;88.30
44037;DHT22;62488;-37.670;-63.532;2023-03-01T07:01:56;21.90;88.10
44037;DHT22;62488;-37.670;-63.532;2023-03-01T07:04:23;21.90;87.70
44037;DHT22;62488;-37.670;-63.532;2023-03-01T07:06:50;21.80;87.90
44037;DHT22;62488;-37.670;-63.532;2023-03-01T07:09:22;21.70;88.20
44037;DHT22;62488;-37.670;-63.532;2023-03-01T07:11:50;21.70;88.10
44037;DHT22;62488;-37.670;-63.532;2023-03-01T07:14:17;21.60;87.20
44037;DHT22;62488;-37.670;-63.532;2023-03-01T07:16:46;21.60;87.10
44037;DHT22;62488;-37.670;-63.532;2023-03-01T07:19:13;21.60;87.20
44037;DHT22;62488;-37.670;-63.532;2023-03-01T07:21:41;21.50;86.80
44037;DHT22;62488;-37.670;-63.532;2023-03-01T07:24:08;21.50;85.10
44037;DHT22;62488;-37.670;-63.532;2023-03-01T07:26:35;21.50;83.20
44037;DHT22;62488;-37.670;-63.532;2023-03-01T07:29:04;21.40;82.50
44037;DHT22;62488;-37.670;-63.532;2023-03-01T07:31:32;21.50;80.50
44037;DHT22;62488;-37.670;-63.532;2023-03-01T07:33:59;21.50;81.60
44037;DHT22;62488;-37.670;-63.532;2023-03-01T07:36:26;21.20;83.90
44037;DHT22;62488;-37.670;-63.532;2023-03-01T07:38:53;21.00;85.70
44037;DHT22;62488;-37.670;-63.532;2023-03-01T07:41:22;20.80;86.40
44037;DHT22;62488;-37.670;-63.532;2023-03-01T07:43:49;20.60;86.30
44037;DHT22;62488;-37.670;-63.532;2023-03-01T07:46:16;20.50;86.00
44037;DHT22;62488;-37.670;-63.532;2023-03-01T07:48:44;20.40;85.20
44037;DHT22;62488;-37.670;-63.532;2023-03-01T07:51:11;20.40;84.50
44037;DHT22;62488;-37.670;-63.532;2023-03-01T07:53:38;20.30;84.50
44037;DHT22;62488;-37.670;-63.532;2023-03-01T07:56:10;20.20;84.30
44037;DHT22;62488;-37.670;-63.532;2023-03-01T07:58:42;20.20;84.50
44037;DHT22;62488;-37.670;-63.532;2023-03-01T08:01:11;20.10;85.10
44037;DHT22;62488;-37.670;-63.532;2023-03-01T08:03:39;20.00;84.70
44037;DHT22;62488;-37.670;-63.532;2023-03-01T08:06:07;19.80;84.90
44037;DHT22;62488;-37.670;-63.532;2023-03-01T08:08:35;19.60;85.80
44037;DHT22;62488;-37.670;-63.532;2023-03-01T08:11:04;19.70;84.30
44037;DHT22;62488;-37.670;-63.532;2023-03-01T08:13:32;19.70;82.10
44037;DHT22;62488;-37.670;-63.532;2023-03-01T08:16:11;19.80;81.10
44037;DHT22;62488;-37.670;-63.532;2023-03-01T08:18:39;19.70;78.40
44037;DHT22;62488;-37.670;-63.532;2023-03-01T08:21:11;19.80;76.90
44037;DHT22;62488;-37.670;-63.532;2023-03-01T08:23:38;19.80;76.50
44037;DHT22;62488;-37.670;-63.532;2023-03-01T08:26:16;19.70;76.00
44037;DHT22;62488;-37.670;-63.532;2023-03-01T08:28:45;19.60;75.80
44037;DHT22;62488;-37.670;-63.532;2023-03-01T08:31:18;19.50;74.40
44037;DHT22;62488;-37.670;-63.532;2023-03-01T08:33:46;19.40;74.10
44037;DHT22;62488;-37.670;-63.532;2023-03-01T08:36:31;19.30;73.80
44037;DHT22;62488;-37.670;-63.532;2023-03-01T08:38:58;19.30;73.30
44037;DHT22;62488;-37.670;-63.532;2023-03-01T08:41:26;19.20;72.00
44037;DHT22;62488;-37.670;-63.532;2023-03-01T08:43:53;19.30;70.80
44037;DHT22;62488;-37.670;-63.532;2023-03-01T08:46:32;19.30;67.10
44037;DHT22;62488;-37.670;-63.532;2023-03-01T08:48:59;19.40;63.60
44037;DHT22;62488;-37.670;-63.532;2023-03-01T08:51:26;19.50;59.50
44037;DHT22;62488;-37.670;-63.532;2023-03-01T08:53:53;19.70;57.90
44037;DHT22;62488;-37.670;-63.532;2023-03-01T08:56:20;19.90;54.90
44037;DHT22;62488;-37.670;-63.532;2023-03-01T08:58:49;20.00;54.10
44037;DHT22;62488;-37.670;-63.532;2023-03-01T09:01:18;20.10;52.40
44037;DHT22;62488;-37.670;-63.532;2023-03-01T09:03:45;20.20;50.80
44037;DHT22;62488;-37.670;-63.532;2023-03-01T09:06:13;20.40;49.70
44037;DHT22;62488;-37.670;-63.532;2023-03-01T09:08:43;20.50;48.90
44037;DHT22;62488;-37.670;-63.532;2023-03-01T09:11:13;20.50;47.70
44037;DHT22;62488;-37.670;-63.532;2023-03-01T09:13:42;20.60;47.10
44037;DHT22;62488;-37.670;-63.532;2023-03-01T09:16:12;20.70;46.50
44037;DHT22;62488;-37.670;-63.532;2023-03-01T09:18:40;20.70;46.10
44037;DHT22;62488;-37.670;-63.532;2023-03-01T09:21:10;20.80;45.60
44037;DHT22;62488;-37.670;-63.532;2023-03-01T09:23:42;20.60;45.70
44037;DHT22;62488;-37.670;-63.532;2023-03-01T09:26:12;20.50;45.70
44037;DHT22;62488;-37.670;-63.532;2023-03-01T09:28:39;20.40;45.80
44037;DHT22;62488;-37.670;-63.532;2023-03-01T09:31:10;20.30;45.70
44037;DHT22;62488;-37.670;-63.532;2023-03-01T09:33:39;20.20;45.90
44037;DHT22;62488;-37.670;-63.532;2023-03-01T09:36:15;20.10;45.70
44037;DHT22;62488;-37.670;-63.532;2023-03-01T09:38:43;20.10;46.20
44037;DHT22;62488;-37.670;-63.532;2023-03-01T09:43:58;19.80;45.90
44037;DHT22;62488;-37.670;-63.532;2023-03-01T09:46:27;19.70;45.60
44037;DHT22;62488;-37.670;-63.532;2023-03-01T09:49:02;19.70;45.70
44037;DHT22;62488;-37.670;-63.532;2023-03-01T09:51:35;19.60;46.10
44037;DHT22;62488;-37.670;-63.532;2023-03-01T09:54:03;19.40;47.00
44037;DHT22;62488;-37.670;-63.532;2023-03-01T09:56:36;19.50;47.70
44037;DHT22;62488;-37.670;-63.532;2023-03-01T10:09:45;19.60;46.90
44037;DHT22;62488;-37.670;-63.532;2023-03-01T10:12:19;19.60;47.20
44037;DHT22;62488;-37.670;-63.532;2023-03-01T10:17:56;19.20;46.50
44037;DHT22;62488;-37.670;-63.532;2023-03-01T10:20:33;19.20;47.90
44037;DHT22;62488;-37.670;-63.532;2023-03-01T10:23:04;19.10;47.60
44037;DHT22;62488;-37.670;-63.532;2023-03-01T10:31:24;19.10;47.70
44037;DHT22;62488;-37.670;-63.532;2023-03-01T10:33:56;19.20;48.10
44037;DHT22;62488;-37.670;-63.532;2023-03-01T10:36:24;19.40;47.50
44037;DHT22;62488;-37.670;-63.532;2023-03-01T10:38:54;19.50;47.10
44037;DHT22;62488;-37.670;-63.532;2023-03-01T10:41:25;19.60;47.50
44037;DHT22;62488;-37.670;-63.532;2023-03-01T10:43:58;19.70;46.40
44037;DHT22;62488;-37.670;-63.532;2023-03-01T10:46:35;19.80;45.40
44037;DHT22;62488;-37.670;-63.532;2023-03-01T10:49:17;19.90;46.70
44037;DHT22;62488;-37.670;-63.532;2023-03-01T10:51:47;20.00;46.10
44037;DHT22;62488;-37.670;-63.532;2023-03-01T10:54:34;20.00;46.70
44037;DHT22;62488;-37.670;-63.532;2023-03-01T10:57:04;20.10;47.50
44037;DHT22;62488;-37.670;-63.532;2023-03-01T10:59:37;20.10;46.10
44037;DHT22;62488;-37.670;-63.532;2023-03-01T11:02:30;20.20;46.30
44037;DHT22;62488;-37.670;-63.532;2023-03-01T11:05:18;20.20;47.10
44037;DHT22;62488;-37.670;-63.532;2023-03-01T11:07:51;20.20;47.10
44037;DHT22;62488;-37.670;-63.532;2023-03-01T11:10:24;20.20;46.70
44037;DHT22;62488;-37.670;-63.532;2023-03-01T11:13:05;20.20;47.40
44037;DHT22;62488;-37.670;-63.532;2023-03-01T11:15:32;20.30;47.00
44037;DHT22;62488;-37.670;-63.532;2023-03-01T11:17:59;20.50;47.60
44037;DHT22;62488;-37.670;-63.532;2023-03-01T11:20:31;20.80;47.60
44037;DHT22;62488;-37.670;-63.532;2023-03-01T11:23:13;21.20;47.60
44037;DHT22;62488;-37.670;-63.532;2023-03-01T11:25:51;21.60;46.90
44037;DHT22;62488;-37.670;-63.532;2023-03-01T11:28:21;21.50;47.00
44037;DHT22;62488;-37.670;-63.532;2023-03-01T11:33:36;22.00;46.40
44037;DHT22;62488;-37.670;-63.532;2023-03-01T11:38:40;22.70;45.50
44037;DHT22;62488;-37.670;-63.532;2023-03-01T11:41:21;22.80;45.00
44037;DHT22;62488;-37.670;-63.532;2023-03-01T11:44:03;22.90;45.20
44037;DHT22;62488;-37.670;-63.532;2023-03-01T11:49:38;23.20;44.90
44037;DHT22;62488;-37.670;-63.532;2023-03-01T11:52:29;23.30;45.60
44037;DHT22;62488;-37.670;-63.532;2023-03-01T12:08:00;24.60;44.60
44037;DHT22;62488;-37.670;-63.532;2023-03-01T12:10:49;24.50;44.80
44037;DHT22;62488;-37.670;-63.532;2023-03-01T12:25:04;26.20;44.40
44037;DHT22;62488;-37.670;-63.532;2023-03-01T12:27:42;26.30;44.40
44037;DHT22;62488;-37.670;-63.532;2023-03-01T12:33:17;27.00;44.60
44037;DHT22;62488;-37.670;-63.532;2023-03-01T12:38:25;27.00;44.00
44037;DHT22;62488;-37.670;-63.532;2023-03-01T12:46:42;27.70;44.00
44037;DHT22;62488;-37.670;-63.532;2023-03-01T12:49:32;28.00;44.20
44037;DHT22;62488;-37.670;-63.532;2023-03-01T12:54:33;28.50;44.10
44037;DHT22;62488;-37.670;-63.532;2023-03-01T12:57:15;28.50;43.90
44037;DHT22;62488;-37.670;-63.532;2023-03-01T13:02:57;28.70;44.40
44037;DHT22;62488;-37.670;-63.532;2023-03-01T13:08:42;29.00;44.20
44037;DHT22;62488;-37.670;-63.532;2023-03-01T13:11:22;29.20;43.60
44037;DHT22;62488;-37.670;-63.532;2023-03-01T13:13:50;29.40;44.30
44037;DHT22;62488;-37.670;-63.532;2023-03-01T13:19:24;29.50;43.80
44037;DHT22;62488;-37.670;-63.532;2023-03-01T13:21:54;29.70;43.80
44037;DHT22;62488;-37.670;-63.532;2023-03-01T13:24:42;29.80;43.60
44037;DHT22;62488;-37.670;-63.532;2023-03-01T13:27:11;29.80;43.30
44037;DHT22;62488;-37.670;-63.532;2023-03-01T13:29:58;30.20;44.00
44037;DHT22;62488;-37.670;-63.532;2023-03-01T13:32:34;30.50;43.60
44037;DHT22;62488;-37.670;-63.532;2023-03-01T13:40:59;30.90;43.10
44037;DHT22;62488;-37.670;-63.532;2023-03-01T13:43:38;31.20;43.20
44037;DHT22;62488;-37.670;-63.532;2023-03-01T13:46:43;31.20;43.20
44037;DHT22;62488;-37.670;-63.532;2023-03-01T13:49:03;31.50;43.30
44037;DHT22;62488;-37.670;-63.532;2023-03-01T13:51:30;32.10;42.90
44037;DHT22;62488;-37.670;-63.532;2023-03-01T13:53:58;32.60;42.70
44037;DHT22;62488;-37.670;-63.532;2023-03-01T13:56:28;32.60;42.30
44037;DHT22;62488;-37.670;-63.532;2023-03-01T13:59:02;32.90;41.80
44037;DHT22;62488;-37.670;-63.532;2023-03-01T14:01:33;33.10;42.10
44037;DHT22;62488;-37.670;-63.532;2023-03-01T14:04:02;33.50;41.60
44037;DHT22;62488;-37.670;-63.532;2023-03-01T14:06:32;33.80;41.00
44037;DHT22;62488;-37.670;-63.532;2023-03-01T14:09:23;33.90;41.00
44037;DHT22;62488;-37.670;-63.532;2023-03-01T14:20:59;34.30;40.50
44037;DHT22;62488;-37.670;-63.532;2023-03-01T14:23:27;34.40;41.20
44037;DHT22;62488;-37.670;-63.532;2023-03-01T14:25:58;34.60;40.40
44037;DHT22;62488;-37.670;-63.532;2023-03-01T14:28:27;35.00;40.30
44037;DHT22;62488;-37.670;-63.532;2023-03-01T14:30:59;35.10;40.40
44037;DHT22;62488;-37.670;-63.532;2023-03-01T14:33:34;35.40;40.20
44037;DHT22;62488;-37.670;-63.532;2023-03-01T14:36:09;35.40;39.80
44037;DHT22;62488;-37.670;-63.532;2023-03-01T14:43:43;35.40;39.90
44037;DHT22;62488;-37.670;-63.532;2023-03-01T14:46:30;35.30;39.20
44037;DHT22;62488;-37.670;-63.532;2023-03-01T14:49:36;35.30;39.80
44037;DHT22;62488;-37.670;-63.532;2023-03-01T14:52:15;35.70;39.70
44037;DHT22;62488;-37.670;-63.532;2023-03-01T14:54:52;35.60;39.40
44037;DHT22;62488;-37.670;-63.532;2023-03-01T14:57:22;35.50;39.20
44037;DHT22;62488;-37.670;-63.532;2023-03-01T14:59:55;36.00;39.60
44037;DHT22;62488;-37.670;-63.532;2023-03-01T15:02:25;36.50;39.10
44037;DHT22;62488;-37.670;-63.532;2023-03-01T15:04:56;36.90;39.20
44037;DHT22;62488;-37.670;-63.532;2023-03-01T15:07:30;37.30;39.00
44037;DHT22;62488;-37.670;-63.532;2023-03-01T15:09:59;37.20;38.20
44037;DHT22;62488;-37.670;-63.532;2023-03-01T15:14:56;37.60;37.80
44037;DHT22;62488;-37.670;-63.532;2023-03-01T15:19:58;37.50;38.10
44037;DHT22;62488;-37.670;-63.532;2023-03-01T15:22:26;37.60;37.80
44037;DHT22;62488;-37.670;-63.532;2023-03-01T15:24:54;37.60;38.00
44037;DHT22;62488;-37.670;-63.532;2023-03-01T15:27:24;37.40;37.50
44037;DHT22;62488;-37.670;-63.532;2023-03-01T15:30:00;38.00;37.90
44037;DHT22;62488;-37.670;-63.532;2023-03-01T15:32:36;38.80;37.70
44037;DHT22;62488;-37.670;-63.532;2023-03-01T15:35:44;39.00;37.10
44037;DHT22;62488;-37.670;-63.532;2023-03-01T15:38:33;38.70;36.40
44037;DHT22;62488;-37.670;-63.532;2023-03-01T15:41:04;39.40;36.50
44037;DHT22;62488;-37.670;-63.532;2023-03-01T15:44:13;39.20;36.00
44037;DHT22;62488;-37.670;-63.532;2023-03-01T15:46:46;39.40;35.10
44037;DHT22;62488;-37.670;-63.532;2023-03-01T15:49:38;39.80;35.60
44037;DHT22;62488;-37.670;-63.532;2023-03-01T15:52:21;39.90;35.70
44037;DHT22;62488;-37.670;-63.532;2023-03-01T15:54:59;39.60;34.90
44037;DHT22;62488;-37.670;-63.532;2023-03-01T15:57:27;39.50;35.40
44037;DHT22;62488;-37.670;-63.532;2023-03-01T15:59:54;39.20;34.90
44037;DHT22;62488;-37.670;-63.532;2023-03-01T16:02:22;39.40;35.20
44037;DHT22;62488;-37.670;-63.532;2023-03-01T16:04:50;39.80;35.30
44037;DHT22;62488;-37.670;-63.532;2023-03-01T16:07:17;40.10;35.00
44037;DHT22;62488;-37.670;-63.532;2023-03-01T16:09:44;39.90;34.90
44037;DHT22;62488;-37.670;-63.532;2023-03-01T16:12:15;39.90;35.10
44037;DHT22;62488;-37.670;-63.532;2023-03-01T16:16:50;39.70;34.30
44037;DHT22;62488;-37.670;-63.532;2023-03-01T16:19:17;39.80;34.60
44037;DHT22;62488;-37.670;-63.532;2023-03-01T16:21:44;39.60;35.00
44037;DHT22;62488;-37.670;-63.532;2023-03-01T16:24:13;39.50;34.20
44037;DHT22;62488;-37.670;-63.532;2023-03-01T16:26:40;40.10;34.00
44037;DHT22;62488;-37.670;-63.532;2023-03-01T16:29:08;40.40;33.10
44037;DHT22;62488;-37.670;-63.532;2023-03-01T16:31:35;40.50;31.90
44037;DHT22;62488;-37.670;-63.532;2023-03-01T16:34:02;40.30;31.60
44037;DHT22;62488;-37.670;-63.532;2023-03-01T16:36:30;40.50;33.10
44037;DHT22;62488;-37.670;-63.532;2023-03-01T16:38:59;40.50;33.10
44037;DHT22;62488;-37.670;-63.532;2023-03-01T16:41:27;40.50;33.00
44037;DHT22;62488;-37.670;-63.532;2023-03-01T16:43:54;40.60;32.30
44037;DHT22;62488;-37.670;-63.532;2023-03-01T16:46:27;40.70;32.60
44037;DHT22;62488;-37.670;-63.532;2023-03-01T16:48:55;40.80;32.10
44037;DHT22;62488;-37.670;-63.532;2023-03-01T16:51:23;40.50;31.80
44037;DHT22;62488;-37.670;-63.532;2023-03-01T16:53:51;40.50;31.60
44037;DHT22;62488;-37.670;-63.532;2023-03-01T16:56:19;40.50;31.20
44037;DHT22;62488;-37.670;-63.532;2023-03-01T16:58:46;40.70;31.70
44037;DHT22;62488;-37.670;-63.532;2023-03-01T17:01:19;40.60;31.30
44037;DHT22;62488;-37.670;-63.532;2023-03-01T17:03:49;40.50;31.40
44037;DHT22;62488;-37.670;-63.532;2023-03-01T17:06:20;40.70;31.30
44037;DHT22;62488;-37.670;-63.532;2023-03-01T17:08:49;41.10;31.00
44037;DHT22;62488;-37.670;-63.532;2023-03-01T17:11:18;41.10;31.10
44037;DHT22;62488;-37.670;-63.532;2023-03-01T17:13:46;41.90;31.00
44037;DHT22;62488;-37.670;-63.532;2023-03-01T17:16:15;42.30;30.00
44037;DHT22;62488;-37.670;-63.532;2023-03-01T17:18:43;42.10;29.80
44037;DHT22;62488;-37.670;-63.532;2023-03-01T17:21:11;42.00;29.60
44037;DHT22;62488;-37.670;-63.532;2023-03-01T17:23:41;41.40;29.60
44037;DHT22;62488;-37.670;-63.532;2023-03-01T17:26:08;41.10;29.70
44037;DHT22;62488;-37.670;-63.532;2023-03-01T17:28:36;41.40;29.90